Terminal Aerodrome Forecast
Issued by NWS Mt. Holly, NJ

Home | Current Version | Previous Version | Text Only | Print | Product List | Glossary On
Versions: 1 2 3 4 5 6 7 8 9 10 11 12 13 14 15 16 17 18 19 20 21 22 23
000
FTUS41 KPHI 010525
TAFABE
TAF
KABE 010525Z 0106/0206 13003KT 6SM SHRA BR BKN018 OVC030
      TEMPO 0106/0110 4SM TSRA BR BKN018CB
     FM011000 22003KT 4SM BR FEW004 SCT050
     FM011300 25004KT P6SM SCT050
     FM011600 26010G18KT P6SM BKN050
     FM012300 27006KT P6SM SCT050=

USA.gov is the U.S. government's official web portal to all federal, state and local government web resources and services.